Time;durP1;ratioP1;P1;durP2;ratioP2;P2;SDS_P1;SDS_P2;PMS_P1;PMS_P2;Temp;Humidity;BMP_temperature;BMP_pressure;BME280_temperature;BME280_humidity;BME280_pressure;Samples;Min_cycle;Max_cycle;Signal;HPM_P1;HPM_P2
2022/04/28 00:00:37;;;;;;;9.23;7.07;;;;;;;9.34;80.67;101336.13;5052813;28;20060;-70
2022/04/28 00:03:04;;;;;;;9.35;7.80;;;;;;;9.53;80.91;101363.81;5040954;28;20067;-68
2022/04/28 00:05:31;;;;;;;10.25;7.82;;;;;;;9.49;79.76;101363.03;5055608;28;20060;-70
2022/04/28 00:07:58;;;;;;;10.30;7.65;;;;;;;9.47;79.74;101359.56;5064244;28;20144;-68
2022/04/28 00:10:24;;;;;;;9.18;8.23;;;;;;;9.49;79.67;101362.16;5058169;28;20075;-72
2022/04/28 00:12:51;;;;;;;10.27;8.02;;;;;;;9.50;79.46;101369.19;5061151;28;20052;-67
2022/04/28 00:15:18;;;;;;;11.05;8.68;;;;;;;9.37;79.55;101350.16;5058318;28;20419;-73
2022/04/28 00:17:45;;;;;;;10.48;8.68;;;;;;;9.47;79.70;101372.78;5055600;28;20068;-73
2022/04/28 00:20:12;;;;;;;11.85;8.40;;;;;;;9.40;79.64;101357.13;5060322;28;20036;-70
2022/04/28 00:22:38;;;;;;;12.52;9.05;;;;;;;9.45;79.73;101360.50;5062833;28;20337;-69
2022/04/28 00:25:06;;;;;;;10.52;8.85;;;;;;;9.44;79.80;101364.09;5066764;28;20515;-72
2022/04/28 00:27:33;;;;;;;11.35;9.23;;;;;;;9.52;79.93;101377.06;5064863;28;20098;-71
2022/04/28 00:30:00;;;;;;;10.65;8.80;;;;;;;9.24;79.73;101334.66;5061540;28;20053;-69
2022/04/28 00:32:27;;;;;;;11.35;9.00;;;;;;;9.34;80.03;101354.63;5054726;28;20048;-68
2022/04/28 00:34:54;;;;;;;12.75;9.25;;;;;;;9.41;79.97;101366.81;5061829;28;20539;-68
2022/04/28 00:37:21;;;;;;;11.88;9.32;;;;;;;9.42;80.20;101368.53;5063200;28;20060;-67
2022/04/28 00:39:49;;;;;;;12.95;8.88;;;;;;;9.30;79.91;101345.03;5061999;28;20063;-69
2022/04/28 00:42:17;;;;;;;12.57;10.25;;;;;;;9.37;80.31;101371.28;5062312;28;20072;-74
2022/04/28 00:44:44;;;;;;;14.40;9.45;;;;;;;9.35;80.05;101375.75;5058514;28;20155;-67
2022/04/28 00:47:11;;;;;;;14.35;10.25;;;;;;;9.28;80.24;101368.91;5065232;28;20064;-68
2022/04/28 00:52:27;;;;;;;15.35;11.15;;;;;;;9.15;81.17;101354.25;5059248;28;20060;-69
2022/04/28 00:54:55;;;;;;;14.35;11.25;;;;;;;9.27;81.35;101377.75;5063765;28;20797;-70
2022/04/28 00:57:22;;;;;;;17.10;11.80;;;;;;;9.24;81.51;101382.22;5061047;28;20041;-71
2022/04/28 00:59:50;;;;;;;17.45;11.73;;;;;;;9.20;82.08;101372.63;5059141;28;20455;-69
2022/04/28 01:02:18;;;;;;;16.15;12.57;;;;;;;9.18;82.23;101377.09;5063389;28;20156;-69
2022/04/28 01:04:47;;;;;;;15.73;12.85;;;;;;;9.18;82.18;101366.53;5063438;28;20117;-67
2022/04/28 01:07:14;;;;;;;16.55;12.73;;;;;;;9.09;82.70;101363.22;5061270;28;20135;-69
2022/04/28 01:09:41;;;;;;;18.50;12.82;;;;;;;9.22;82.64;101379.63;5063054;28;20080;-67
2022/04/28 01:12:14;;;;;;;16.77;13.05;;;;;;;9.21;82.94;101377.88;5041601;28;20139;-71
2022/04/28 01:14:42;;;;;;;19.38;13.20;;;;;;;9.23;83.10;101378.72;5065165;28;20052;-67
2022/04/28 01:17:09;;;;;;;15.82;13.38;;;;;;;9.25;82.83;101378.69;5064183;28;20470;-71
2022/04/28 01:19:36;;;;;;;19.80;13.98;;;;;;;9.11;82.88;101355.25;5064114;28;20080;-72
2022/04/28 01:22:06;;;;;;;17.98;13.77;;;;;;;9.24;82.74;101387.50;5062287;28;20070;-70
2022/04/28 01:24:34;;;;;;;20.05;14.48;;;;;;;9.22;82.63;101386.69;5063622;28;20045;-67
2022/04/28 01:27:02;;;;;;;19.40;14.82;;;;;;;9.20;82.45;101376.16;5070763;28;20139;-67
2022/04/28 01:29:33;;;;;;;22.65;15.02;;;;;;;9.20;82.26;101373.50;5069308;28;20056;-69
2022/04/28 01:32:00;;;;;;;18.67;14.75;;;;;;;9.26;82.30;101383.94;5069030;28;20110;-67
2022/04/28 01:34:27;;;;;;;20.10;15.32;;;;;;;9.26;82.46;101388.34;5065961;28;20372;-67
2022/04/28 01:36:55;;;;;;;19.50;14.90;;;;;;;9.31;82.53;101384.66;5065871;28;20411;-68
2022/04/28 01:39:21;;;;;;;20.20;14.48;;;;;;;9.34;82.73;101379.31;5067003;28;20397;-70
2022/04/28 01:41:49;;;;;;;18.67;14.77;;;;;;;9.35;82.28;101383.69;5066751;28;20160;-71
2022/04/28 01:44:16;;;;;;;19.50;14.40;;;;;;;9.36;82.35;101382.78;5065879;28;20125;-78
2022/04/28 01:46:43;;;;;;;18.63;14.73;;;;;;;9.34;81.91;101378.44;5066612;28;20146;-68
2022/04/28 01:49:09;;;;;;;19.63;14.20;;;;;;;9.35;81.87;101377.53;5066242;28;20637;-72
2022/04/28 01:57:06;;;;;;;22.60;15.93;;;;;;;9.29;81.94;101378.53;5060229;28;20037;-72
2022/04/28 01:59:32;;;;;;;22.40;16.58;;;;;;;9.21;81.93;101361.16;5059475;28;20072;-70
2022/04/28 02:01:59;;;;;;;20.60;14.27;;;;;;;9.30;82.19;101385.56;5062634;28;20098;-68
2022/04/28 02:04:26;;;;;;;20.58;16.02;;;;;;;9.11;82.18;101360.53;5066667;28;20048;-71
2022/04/28 02:06:53;;;;;;;20.13;14.90;;;;;;;9.21;82.29;101388.47;5069653;28;20137;-67
2022/04/28 02:09:19;;;;;;;22.13;15.95;;;;;;;9.06;82.69;101363.28;5068608;28;20145;-68
2022/04/28 02:11:46;;;;;;;20.98;16.95;;;;;;;9.13;82.84;101388.63;5066821;28;20057;-70
2022/04/28 02:14:13;;;;;;;20.13;15.38;;;;;;;9.13;82.84;101388.63;5061628;28;20098;-69
2022/04/28 02:16:39;;;;;;;21.25;16.67;;;;;;;9.16;83.04;101395.63;5065020;28;22361;-68
2022/04/28 02:19:06;;;;;;;22.40;16.40;;;;;;;9.16;82.99;101390.34;5066139;28;20075;-80
2022/04/28 02:21:33;;;;;;;22.17;16.67;;;;;;;9.12;83.24;101388.69;5065265;28;20048;-67
2022/04/28 02:23:59;;;;;;;22.67;17.13;;;;;;;9.14;82.94;101400.06;5067711;28;20048;-73
2022/04/28 02:26:26;;;;;;;22.70;16.90;;;;;;;8.99;83.01;101381.97;5063043;28;20124;-68
2022/04/28 02:28:53;;;;;;;20.95;16.33;;;;;;;9.07;83.31;101401.16;5062956;28;20612;-69
2022/04/28 02:31:20;;;;;;;23.13;16.98;;;;;;;9.07;83.42;101398.50;5066992;28;20044;-73
2022/04/28 02:33:46;;;;;;;21.40;16.98;;;;;;;8.88;83.46;101368.16;5064576;28;20041;-70
2022/04/28 02:36:13;;;;;;;21.80;16.83;;;;;;;9.00;83.58;101396.91;5063908;28;20531;-70
2022/04/28 02:38:40;;;;;;;24.33;17.08;;;;;;;8.98;83.89;101404.00;5065556;28;20057;-68
2022/04/28 02:41:08;;;;;;;26.80;16.83;;;;;;;8.98;83.96;101399.59;5064122;28;20048;-78
2022/04/28 02:43:35;;;;;;;21.38;16.83;;;;;;;8.94;83.90;101400.59;5063795;28;20045;-71
2022/04/28 02:46:01;;;;;;;21.67;16.55;;;;;;;8.91;84.32;101398.00;5058678;28;20045;-68
2022/04/28 02:48:28;;;;;;;22.52;17.48;;;;;;;8.88;84.59;101391.94;5068862;28;20113;-68
2022/04/28 02:50:55;;;;;;;22.88;17.13;;;;;;;8.89;84.26;101402.47;5071179;28;20132;-73
2022/04/28 02:53:22;;;;;;;21.67;16.65;;;;;;;8.88;84.63;101403.38;5065618;28;20044;-72
2022/04/28 02:55:48;;;;;;;24.02;17.08;;;;;;;8.87;84.81;101404.28;5066236;28;20051;-67
2022/04/28 02:58:15;;;;;;;25.92;17.65;;;;;;;8.62;84.73;101356.47;5064879;28;20179;-68
2022/04/28 03:00:42;;;;;;;23.45;17.65;;;;;;;8.77;84.89;101390.44;5064487;28;20065;-72
2022/04/28 03:03:09;;;;;;;24.67;17.15;;;;;;;8.78;85.01;101394.81;5062009;28;20189;-68
2022/04/28 03:11:14;;;;;;;26.48;18.75;;;;;;;8.55;85.49;101375.97;5066476;28;20053;-67
2022/04/28 03:13:42;;;;;;;22.35;17.38;;;;;;;8.64;85.75;101396.03;5065060;28;20117;-68
2022/04/28 03:16:09;;;;;;;26.08;18.60;;;;;;;8.36;85.92;101356.19;5065066;28;20090;-70
2022/04/28 03:18:35;;;;;;;25.58;18.90;;;;;;;8.61;86.08;101412.81;5065169;28;20776;-68
2022/04/28 03:21:02;;;;;;;24.60;18.33;;;;;;;8.63;86.17;101408.38;5066868;28;20057;-69
2022/04/28 03:23:28;;;;;;;26.40;18.25;;;;;;;8.62;86.18;101404.00;5069128;28;20049;-71
2022/04/28 03:25:55;;;;;;;26.48;19.60;;;;;;;8.58;86.09;101406.72;5066051;28;20471;-71
2022/04/28 03:28:22;;;;;;;29.75;18.65;;;;;;;8.62;86.35;101409.28;5063291;28;20045;-66
2022/04/28 03:30:49;;;;;;;27.50;18.48;;;;;;;8.48;86.46;101386.72;5065187;28;20048;-74
2022/04/28 03:33:18;;;;;;;23.95;18.23;;;;;;;8.59;86.49;101413.75;5064833;28;20056;-67
2022/04/28 03:35:45;;;;;;;25.20;18.88;;;;;;;8.60;86.70;101418.13;5061895;28;20045;-72
2022/04/28 03:38:11;;;;;;;24.08;18.67;;;;;;;8.45;86.61;101392.94;5060348;28;20095;-74
2022/04/28 03:40:42;;;;;;;25.20;18.90;;;;;;;8.58;86.53;101419.94;5063454;28;20083;-68
2022/04/28 03:43:09;;;;;;;27.67;19.77;;;;;;;8.55;86.67;101412.94;5059678;28;20080;-67
2022/04/28 03:45:37;;;;;;;27.67;18.85;;;;;;;8.44;86.73;101410.53;5064350;28;20088;-73
2022/04/28 03:48:04;;;;;;;27.00;19.42;;;;;;;8.50;87.28;101419.25;5061787;28;20108;-69
2022/04/28 03:50:31;;;;;;;30.25;20.50;;;;;;;8.49;87.10;101422.78;5069707;28;20072;-68
2022/04/28 03:52:58;;;;;;;26.63;20.63;;;;;;;8.32;87.26;101389.72;5061527;28;20048;-74
2022/04/28 03:55:25;;;;;;;28.55;20.17;;;;;;;8.44;87.48;101413.19;5067013;28;20135;-68
2022/04/28 03:57:52;;;;;;;27.83;20.77;;;;;;;8.46;87.39;101426.34;5066091;28;20056;-67
2022/04/28 04:00:20;;;;;;;27.13;20.00;;;;;;;8.44;87.77;101420.22;5063651;28;20418;-67
2022/04/28 04:02:48;;;;;;;26.95;20.10;;;;;;;8.33;87.50;101409.06;5064772;28;20161;-68
2022/04/28 04:05:15;;;;;;;26.63;20.38;;;;;;;8.45;87.08;101432.53;5065462;28;20055;-66
2022/04/28 04:07:43;;;;;;;25.90;20.13;;;;;;;8.42;87.33;101429.94;5063578;28;20045;-67
2022/04/28 04:10:11;;;;;;;26.60;20.70;;;;;;;8.36;87.49;101428.31;5063443;28;20064;-70
2022/04/28 04:12:38;;;;;;;32.72;22.00;;;;;;;8.19;88.03;101403.13;5065177;28;20132;-72
2022/04/28 04:15:06;;;;;;;28.52;20.60;;;;;;;8.32;87.68;101434.56;5065772;28;20036;-67
2022/04/28 04:17:41;;;;;;;26.95;20.23;;;;;;;8.35;87.91;101436.25;5062437;28;20040;-69
2022/04/28 04:20:08;;;;;;;27.50;21.08;;;;;;;8.38;88.05;101439.69;5042205;28;20161;-68
2022/04/28 04:22:36;;;;;;;28.75;21.35;;;;;;;8.36;87.94;101438.00;5064879;28;20098;-74
2022/04/28 04:25:04;;;;;;;26.35;20.35;;;;;;;8.21;88.29;101417.16;5063851;28;20117;-71
2022/04/28 04:27:30;;;;;;;31.42;21.58;;;;;;;8.42;88.29;101445.78;5041763;28;20048;-70
2022/04/28 04:29:57;;;;;;;30.35;20.30;;;;;;;8.44;88.46;101446.63;5061222;28;20048;-67
2022/04/28 04:32:26;;;;;;;28.08;20.08;;;;;;;8.44;87.93;101446.63;5062860;28;20099;-68
2022/04/28 04:34:53;;;;;;;30.20;21.67;;;;;;;8.46;87.78;101449.25;5063504;28;20471;-69
2022/04/28 04:37:21;;;;;;;29.58;21.50;;;;;;;8.46;87.56;101455.38;5060012;28;20051;-67
2022/04/28 04:39:51;;;;;;;26.20;19.55;;;;;;;8.45;87.95;101453.66;5059793;28;20048;-69
2022/04/28 04:42:18;;;;;;;31.10;22.03;;;;;;;8.43;87.43;101456.31;5059396;28;20048;-67
2022/04/28 04:44:44;;;;;;;28.88;20.92;;;;;;;8.31;87.86;101434.56;5063831;28;20052;-67
2022/04/28 04:47:11;;;;;;;30.02;21.52;;;;;;;8.35;87.57;101446.81;5064202;28;20098;-69
2022/04/28 04:49:38;;;;;;;27.45;21.55;;;;;;;8.28;87.93;101437.25;5065448;28;20500;-68
2022/04/28 04:52:04;;;;;;;30.50;20.55;;;;;;;8.48;87.70;101469.44;5030495;28;20049;-67
2022/04/28 04:54:31;;;;;;;28.60;20.40;;;;;;;8.50;87.90;101467.59;5063694;28;20123;-68
2022/04/28 04:56:58;;;;;;;27.77;20.80;;;;;;;8.61;87.89;101476.19;5061719;28;20063;-70
2022/04/28 04:59:24;;;;;;;28.50;20.80;;;;;;;8.55;87.41;101447.25;5062678;28;20076;-70
2022/04/28 05:01:51;;;;;;;28.75;20.48;;;;;;;8.72;87.04;101475.94;5062827;28;20072;-68
2022/04/28 05:04:18;;;;;;;26.92;20.30;;;;;;;8.74;86.58;101474.13;5060680;28;20064;-75
2022/04/28 05:06:44;;;;;;;28.55;21.17;;;;;;;8.79;86.33;101486.34;5060897;28;20075;-69
2022/04/28 05:09:11;;;;;;;29.58;21.23;;;;;;;8.78;85.86;101474.03;5063507;28;20113;-69
2022/04/28 05:11:38;;;;;;;25.88;21.10;;;;;;;8.87;85.96;101482.63;5060596;28;20559;-68
2022/04/28 05:14:04;;;;;;;28.30;20.45;;;;;;;8.93;85.68;101493.09;5058084;28;20065;-67
2022/04/28 05:16:31;;;;;;;29.60;21.30;;;;;;;8.95;85.66;101488.63;5059870;28;20043;-67
2022/04/28 05:18:58;;;;;;;29.95;20.52;;;;;;;8.89;85.25;101470.28;5063123;28;20051;-71
2022/04/28 05:21:24;;;;;;;26.08;20.33;;;;;;;9.05;84.99;101487.50;5060949;28;20119;-68
2022/04/28 05:23:51;;;;;;;27.45;19.85;;;;;;;9.11;85.26;101482.09;5066581;28;20055;-68
2022/04/28 05:26:23;;;;;;;27.27;21.23;;;;;;;9.24;83.70;101499.38;5062775;28;20083;-71
2022/04/28 05:28:50;;;;;;;28.35;20.33;;;;;;;9.26;83.30;101489.66;5064549;28;20209;-71
2022/04/28 05:31:19;;;;;;;26.75;19.67;;;;;;;9.35;82.58;101491.19;5060342;28;20072;-71
2022/04/28 05:33:45;;;;;;;29.98;20.85;;;;;;;9.46;82.04;101495.28;5059837;28;20044;-68
2022/04/28 05:36:15;;;;;;;31.02;20.40;;;;;;;9.43;81.19;101479.53;5059953;28;20129;-75
2022/04/28 05:38:43;;;;;;;27.50;20.10;;;;;;;9.43;80.99;101474.25;5064607;28;20446;-73
2022/04/28 05:41:10;;;;;;;26.17;20.25;;;;;;;9.63;81.13;101494.00;5064949;28;20134;-71
2022/04/28 05:46:24;;;;;;;30.75;21.35;;;;;;;9.82;79.63;101501.44;5060630;28;20052;-69
2022/04/28 05:48:52;;;;;;;27.45;20.58;;;;;;;9.90;79.40;101505.66;5058893;28;20056;-71
2022/04/28 05:51:18;;;;;;;25.02;19.60;;;;;;;9.95;79.22;101509.91;5043001;28;20288;-68
2022/04/28 05:53:45;;;;;;;26.60;21.02;;;;;;;10.01;78.84;101512.41;5062861;28;20075;-71
2022/04/28 05:56:11;;;;;;;27.88;19.75;;;;;;;10.13;78.26;101519.13;5058853;28;20052;-76
2022/04/28 05:58:38;;;;;;;25.83;19.08;;;;;;;10.17;77.65;101516.38;5057484;28;20620;-70
2022/04/28 06:01:05;;;;;;;25.20;19.48;;;;;;;10.29;77.13;101515.19;5056135;28;20076;-69
2022/04/28 06:03:33;;;;;;;27.92;20.95;;;;;;;10.39;76.39;101521.94;5054494;28;20048;-69
2022/04/28 06:06:00;;;;;;;27.55;20.35;;;;;;;10.46;75.71;101528.81;5064142;28;20056;-69
2022/04/28 06:08:26;;;;;;;29.48;20.52;;;;;;;10.52;75.43;101512.78;5063306;28;20045;-67
2022/04/28 06:10:53;;;;;;;28.55;19.80;;;;;;;10.65;75.80;101530.94;5065246;28;20087;-69
2022/04/28 06:13:20;;;;;;;25.15;19.23;;;;;;;10.73;74.82;101523.63;5058135;28;20708;-71
2022/04/28 06:15:46;;;;;;;26.38;20.83;;;;;;;10.88;74.34;101528.47;5067620;28;20163;-74
2022/04/28 06:18:13;;;;;;;28.20;20.15;;;;;;;11.11;72.59;101533.06;5063607;28;20148;-75
2022/04/28 06:20:39;;;;;;;27.05;19.95;;;;;;;11.11;72.12;101511.88;5061804;28;20040;-69
2022/04/28 06:23:06;;;;;;;25.95;19.33;;;;;;;11.54;70.67;101536.09;5060836;28;20076;-83
2022/04/28 06:25:33;;;;;;;29.02;19.65;;;;;;;11.90;68.79;101535.81;5065587;28;20127;-71
2022/04/28 06:28:00;;;;;;;23.73;18.38;;;;;;;12.27;67.28;101541.59;5068812;28;20049;-69
2022/04/28 06:30:28;;;;;;;24.20;19.08;;;;;;;12.62;65.40;101542.94;5065916;28;20110;-71
2022/04/28 06:32:55;;;;;;;25.60;18.48;;;;;;;12.91;63.71;101533.84;5064913;28;20120;-72
2022/04/28 06:35:22;;;;;;;21.90;18.00;;;;;;;13.16;62.19;101546.25;5066092;28;20112;-69
2022/04/28 06:37:48;;;;;;;22.92;17.92;;;;;;;13.36;62.21;101556.09;5071103;28;20124;-76
2022/04/28 06:40:15;;;;;;;21.55;17.35;;;;;;;13.60;60.56;101555.09;5068605;28;20071;-70
2022/04/28 06:42:44;;;;;;;24.00;17.58;;;;;;;13.63;59.64;101533.66;5064980;28;20045;-70
2022/04/28 06:45:12;;;;;;;23.90;17.77;;;;;;;13.98;59.11;101556.16;5066448;28;22076;-70
2022/04/28 06:47:39;;;;;;;20.67;16.55;;;;;;;14.27;58.18;101555.75;5067347;28;20134;-73
2022/04/28 06:50:08;;;;;;;23.00;17.98;;;;;;;14.61;57.03;101555.16;5067155;28;20485;-75
2022/04/28 06:52:39;;;;;;;22.17;16.45;;;;;;;14.80;57.57;101557.84;5069967;28;20056;-69
2022/04/28 06:55:07;;;;;;;20.00;17.52;;;;;;;14.98;55.40;101564.13;5065842;28;20049;-68
2022/04/28 06:57:34;;;;;;;22.20;17.38;;;;;;;14.89;55.03;101557.41;5068125;28;20370;-68
2022/04/28 07:00:03;;;;;;;23.23;17.10;;;;;;;15.08;55.44;101557.44;5065914;28;20078;-70
2022/04/28 07:02:30;;;;;;;20.83;16.48;;;;;;;15.27;54.41;101563.59;5065836;28;20076;-69
2022/04/28 07:04:57;;;;;;;21.58;16.88;;;;;;;15.51;53.44;101553.56;5043847;28;20495;-75
2022/04/28 07:07:24;;;;;;;18.60;16.65;;;;;;;15.55;53.58;101546.28;5060603;28;20072;-70
2022/04/28 07:09:51;;;;;;;19.98;16.45;;;;;;;15.27;53.57;101518.25;5060928;28;20130;-69
2022/04/28 07:12:33;;;;;;;20.25;16.48;;;;;;;15.28;52.88;101535.97;5065948;28;20140;-69
2022/04/28 07:14:59;;;;;;;19.02;15.45;;;;;;;15.60;53.48;101561.13;5068112;28;20045;-68
2022/04/28 07:17:26;;;;;;;19.50;16.38;;;;;;;15.78;53.95;101552.22;5067456;28;21090;-73
2022/04/28 07:19:53;;;;;;;20.10;16.85;;;;;;;15.82;54.57;101554.72;5061000;28;20052;-70
2022/04/28 07:22:19;;;;;;;18.90;16.40;;;;;;;16.13;54.12;101560.25;5060246;28;20056;-67
2022/04/28 07:24:49;;;;;;;19.85;16.67;;;;;;;16.41;53.65;101560.53;5067061;28;20126;-71
2022/04/28 07:27:15;;;;;;;16.88;13.90;;;;;;;16.88;51.74;101562.50;5063285;28;20056;-74
2022/04/28 07:29:42;;;;;;;20.58;14.88;;;;;;;17.35;49.34;101569.69;5068214;28;20531;-68
2022/04/28 07:32:09;;;;;;;17.33;14.02;;;;;;;17.53;48.37;101574.00;5065461;28;20048;-71
2022/04/28 07:34:36;;;;;;;15.60;12.93;;;;;;;17.71;48.80;101569.44;5066552;28;20040;-67
2022/04/28 07:37:04;;;;;;;15.98;13.65;;;;;;;17.85;46.62;101553.41;5070034;28;20479;-70
2022/04/28 07:39:31;;;;;;;16.95;13.70;;;;;;;18.03;47.04;101575.59;5043737;28;20041;-70
2022/04/28 07:41:57;;;;;;;19.17;15.63;;;;;;;17.70;47.75;101575.75;5063814;28;20041;-69
2022/04/28 07:44:24;;;;;;;18.92;15.05;;;;;;;17.29;48.70;101559.34;5061750;28;20048;-67
2022/04/28 07:46:50;;;;;;;17.55;15.10;;;;;;;17.56;48.34;101573.84;5064224;28;20090;-72
2022/04/28 07:49:17;;;;;;;18.73;14.43;;;;;;;17.52;48.68;101577.63;5062942;28;20106;-73
2022/04/28 07:51:43;;;;;;;18.08;13.10;;;;;;;17.54;48.52;101573.06;5066312;28;20060;-69
2022/04/28 07:54:10;;;;;;;16.42;13.25;;;;;;;17.35;47.45;101581.28;5061798;28;20062;-68
2022/04/28 07:56:37;;;;;;;16.33;12.30;;;;;;;17.26;47.61;101578.25;5060763;28;20057;-68
2022/04/28 07:59:03;;;;;;;14.30;11.60;;;;;;;17.12;47.78;101581.69;5065380;28;20084;-68
2022/04/28 08:01:50;;;;;;;13.52;11.60;;;;;;;17.52;47.34;101580.31;5063882;28;20174;-74
2022/04/28 08:04:17;;;;;;;15.13;12.80;;;;;;;17.47;46.75;101561.81;5064274;28;20468;-72
2022/04/28 08:06:43;;;;;;;15.25;10.98;;;;;;;17.75;46.90;101581.72;5067218;28;20083;-68
2022/04/28 08:09:10;;;;;;;12.45;11.15;;;;;;;17.91;45.72;101581.69;5064620;28;20098;-70
2022/04/28 08:11:39;;;;;;;16.55;12.32;;;;;;;17.83;46.61;101577.63;5063439;28;20431;-79
2022/04/28 08:14:06;;;;;;;13.73;11.75;;;;;;;17.90;46.61;101585.31;5061251;28;20457;-71
2022/04/28 08:16:32;;;;;;;14.90;11.77;;;;;;;17.77;47.09;101587.84;5067999;28;20440;-73
2022/04/28 08:19:00;;;;;;;12.77;11.40;;;;;;;17.87;48.16;101584.53;5068756;28;20041;-68
2022/04/28 08:21:26;;;;;;;16.45;11.82;;;;;;;17.96;47.06;101576.91;5048999;28;20135;-68
2022/04/28 08:23:53;;;;;;;13.90;11.23;;;;;;;17.82;47.48;101578.56;5064376;28;20068;-71
2022/04/28 08:26:20;;;;;;;16.23;11.27;;;;;;;17.53;48.35;101552.59;5068651;28;20468;-69
2022/04/28 08:28:46;;;;;;;14.25;11.93;;;;;;;17.64;47.22;101584.13;5064832;28;20060;-67
2022/04/28 08:31:13;;;;;;;12.70;11.07;;;;;;;17.65;48.35;101584.03;5065131;28;20123;-76
2022/04/28 08:33:45;;;;;;;12.73;11.00;;;;;;;17.62;47.17;101578.84;5064587;28;20136;-67
2022/04/28 08:36:14;;;;;;;12.93;10.88;;;;;;;17.45;48.30;101589.66;5064390;28;20044;-73
2022/04/28 08:38:40;;;;;;;13.77;11.25;;;;;;;17.18;49.53;101584.88;5063951;28;20060;-68
2022/04/28 08:41:11;;;;;;;13.93;11.68;;;;;;;17.22;48.77;101595.44;5059626;28;20056;-72
2022/04/28 08:43:40;;;;;;;15.75;11.57;;;;;;;17.14;48.80;101555.72;5042178;28;20059;-71
2022/04/28 08:48:57;;;;;;;14.15;11.13;;;;;;;17.92;48.16;101591.44;5059917;28;20132;-69
2022/04/28 08:51:25;;;;;;;11.52;10.32;;;;;;;18.11;47.27;101589.38;5053997;28;20111;-70
2022/04/28 08:53:52;;;;;;;11.98;10.48;;;;;;;18.43;46.99;101588.31;5046148;28;20136;-72
2022/04/28 08:56:21;;;;;;;12.85;11.20;;;;;;;18.75;46.01;101583.69;5064449;28;20071;-69
2022/04/28 08:58:48;;;;;;;13.82;10.77;;;;;;;18.89;45.41;101585.50;5057258;28;20048;-68
2022/04/28 09:01:14;;;;;;;12.88;10.70;;;;;;;19.33;44.59;101589.91;5065705;28;20121;-69
2022/04/28 09:03:42;;;;;;;13.52;11.48;;;;;;;19.55;43.42;101591.09;5055678;28;20053;-74
2022/04/28 09:06:31;;;;;;;12.57;11.00;;;;;;;19.70;42.85;101594.59;5065623;28;20072;-76
2022/04/28 09:09:19;;;;;;;12.43;10.98;;;;;;;19.60;43.43;101597.03;5065227;28;20126;-75
2022/04/28 09:11:47;;;;;;;11.85;10.57;;;;;;;18.80;44.58;101576.22;5066390;28;20055;-71
2022/04/28 09:14:17;;;;;;;14.30;10.73;;;;;;;18.54;45.83;101591.22;5062232;28;20112;-75
2022/04/28 09:16:49;;;;;;;12.10;9.52;;;;;;;18.63;46.45;101594.31;5055288;28;20147;-71
2022/04/28 09:19:17;;;;;;;13.60;11.95;;;;;;;18.60;45.81;101600.75;5063253;28;20158;-70
2022/04/28 09:21:44;;;;;;;13.45;9.75;;;;;;;18.43;46.75;101601.72;5067256;28;20503;-68
2022/04/28 09:24:10;;;;;;;11.50;10.30;;;;;;;18.04;46.62;101594.28;5066137;28;20702;-73
2022/04/28 09:26:38;;;;;;;11.20;10.02;;;;;;;17.91;47.46;101603.13;5044657;28;20056;-70
2022/04/28 09:29:05;;;;;;;13.27;10.07;;;;;;;17.86;48.09;101592.66;5059475;28;20072;-72
2022/04/28 09:31:37;;;;;;;12.10;10.80;;;;;;;17.78;48.13;101590.44;5060829;28;20057;-68
2022/04/28 09:34:24;;;;;;;11.25;9.75;;;;;;;17.79;48.44;101597.50;5063303;28;20047;-70
2022/04/28 09:36:51;;;;;;;14.50;10.35;;;;;;;17.66;48.00;101580.41;5062622;28;20503;-69
2022/04/28 09:42:31;;;;;;;14.63;10.97;;;;;;;17.63;46.69;101587.75;5059779;28;20148;-69
2022/04/28 09:44:59;;;;;;;12.63;9.82;;;;;;;17.54;47.05;101586.44;5062716;28;20053;-70
2022/04/28 09:47:27;;;;;;;9.85;8.65;;;;;;;17.58;46.28;101587.16;5063538;28;20202;-78
2022/04/28 09:49:55;;;;;;;10.68;9.00;;;;;;;17.60;46.78;101575.41;5064197;28;20148;-72
2022/04/28 09:52:25;;;;;;;11.35;9.25;;;;;;;17.73;45.90;101584.47;5062981;28;20155;-72
2022/04/28 09:54:53;;;;;;;9.52;8.55;;;;;;;17.70;45.52;101565.91;5066714;28;20439;-70
2022/04/28 09:57:21;;;;;;;10.43;8.70;;;;;;;17.92;45.69;101581.59;5068136;28;20127;-68
2022/04/28 09:59:50;;;;;;;8.13;7.32;;;;;;;18.11;44.99;101579.53;5062468;28;20048;-68
2022/04/28 10:02:19;;;;;;;10.80;7.65;;;;;;;18.10;44.25;101579.66;5066124;28;20049;-70
2022/04/28 10:04:47;;;;;;;8.60;7.53;;;;;;;18.19;44.79;101584.44;5066295;28;20045;-68
2022/04/28 10:07:15;;;;;;;10.32;8.52;;;;;;;18.32;44.09;101579.22;5070001;28;20048;-71
2022/04/28 10:09:45;;;;;;;11.15;9.98;;;;;;;18.36;43.84;101581.63;5069234;28;20076;-71
2022/04/28 10:12:14;;;;;;;9.35;8.35;;;;;;;18.27;44.90;101547.31;5070258;28;20094;-67
2022/04/28 10:14:42;;;;;;;11.55;8.20;;;;;;;18.48;42.96;101569.28;5065014;28;20048;-72
2022/04/28 10:17:15;;;;;;;9.85;8.85;;;;;;;18.55;42.59;101571.50;5071593;28;20067;-70
2022/04/28 10:19:47;;;;;;;9.65;8.73;;;;;;;18.31;43.43;101569.44;5066782;28;20110;-69
2022/04/28 10:22:19;;;;;;;8.80;7.88;;;;;;;18.04;43.75;101561.25;5069560;28;20071;-69
2022/04/28 10:33:10;;;;;;;9.23;7.35;;;;;;;19.16;40.09;101567.66;5067862;28;20052;-67
2022/04/28 10:35:50;;;;;;;7.43;6.32;;;;;;;19.16;39.30;101562.31;5064938;28;20052;-71
2022/04/28 10:38:35;;;;;;;7.20;5.78;;;;;;;19.09;39.26;101562.78;5068648;28;20044;-69
2022/04/28 10:41:01;;;;;;;7.13;5.35;;;;;;;18.75;38.96;101539.88;5066511;28;20087;-68
2022/04/28 10:43:31;;;;;;;5.30;4.68;;;;;;;18.73;38.79;101565.97;5068530;28;20546;-70
2022/04/28 10:46:22;;;;;;;4.75;4.15;;;;;;;18.50;37.00;101565.53;5064715;28;20052;-68
2022/04/28 10:48:53;;;;;;;5.18;4.38;;;;;;;18.38;36.71;101546.66;5063877;28;20151;-72
2022/04/28 10:51:22;;;;;;;4.88;4.38;;;;;;;18.50;37.02;101541.41;5065943;28;20044;-71
2022/04/28 10:53:56;;;;;;;5.00;4.10;;;;;;;18.97;36.29;101558.19;5062897;28;20060;-74
2022/04/28 10:56:23;;;;;;;4.40;4.00;;;;;;;18.89;34.04;101526.47;5067737;28;20052;-69
2022/04/28 10:58:50;;;;;;;6.32;3.63;;;;;;;18.72;34.52;101540.13;5068976;28;20056;-69
2022/04/28 11:01:31;;;;;;;6.13;4.18;;;;;;;18.61;36.27;101558.69;5065011;28;20068;-68
2022/04/28 11:03:59;;;;;;;;;;;;;;;18.61;36.96;101564.03;5065899;28;20056;-70
2022/04/28 11:06:37;;;;;;;5.35;4.47;;;;;;;18.57;37.35;101555.31;5066531;28;19932;-73
2022/04/28 11:09:05;;;;;;;5.30;4.80;;;;;;;18.69;38.21;101546.53;5068134;28;20048;-67
2022/04/28 11:11:46;;;;;;;6.15;5.53;;;;;;;18.90;37.96;101550.53;5068198;28;20129;-71
2022/04/28 11:14:14;;;;;;;11.00;5.55;;;;;;;18.75;38.39;101556.84;5065018;28;20094;-69
2022/04/28 11:16:42;;;;;;;6.10;4.95;;;;;;;18.75;38.20;101559.53;5053331;28;20048;-68
2022/04/28 11:19:10;;;;;;;5.10;4.60;;;;;;;18.94;36.58;101556.56;5065820;28;20150;-69
2022/04/28 11:21:43;;;;;;;4.68;4.05;;;;;;;19.08;35.70;101553.84;5064117;28;20053;-68
2022/04/28 11:24:09;;;;;;;6.50;5.15;;;;;;;19.10;36.50;101554.63;5064784;28;20064;-68
2022/04/28 11:26:37;;;;;;;8.48;4.93;;;;;;;18.90;37.23;101553.22;5064271;28;20122;-68
2022/04/28 11:29:10;;;;;;;6.88;4.55;;;;;;;18.91;35.47;101554.94;5068521;28;20358;-72
2022/04/28 11:31:47;;;;;;;5.22;4.47;;;;;;;19.17;35.30;101553.28;5063071;28;20522;-72
2022/04/28 11:34:14;;;;;;;6.20;3.58;;;;;;;19.53;35.15;101546.47;5066009;28;20045;-68
2022/04/28 11:36:41;;;;;;;4.65;3.53;;;;;;;19.87;34.41;101531.66;5065770;28;20048;-73
2022/04/28 11:39:10;;;;;;;4.43;3.97;;;;;;;20.00;33.82;101545.13;5063538;28;20044;-74
2022/04/28 11:41:42;;;;;;;6.15;4.13;;;;;;;20.09;32.13;101547.19;5064467;28;20123;-73
2022/04/28 11:44:11;;;;;;;4.38;3.80;;;;;;;20.10;32.69;101544.41;5065201;28;20052;-69
2022/04/28 11:46:44;;;;;;;4.15;3.30;;;;;;;20.29;32.99;101538.63;5063116;28;20052;-73
2022/04/28 11:49:11;;;;;;;4.30;3.90;;;;;;;20.34;32.44;101531.06;5058745;28;20081;-67
2022/04/28 11:51:38;;;;;;;4.07;3.10;;;;;;;20.15;32.87;101517.16;5060047;28;20055;-75